Overview Statistics Trail Chart Weather Telemetry Raw packets
 

This is the latest recevied weather packets stored in our database for station/object TONGUE. If no packets are shown the sender has not sent any weather packets the latest 10 day(s).

<< 1 2 3 4 >>
Time Temp. Humidity Pressure Rain* Wind** Luminosity Snow
1788577803 12.78° C 99% 0 hPa - - - -
1788577203 13.33° C 99% 0 hPa - - - -
1788576603 13.33° C 99% 0 hPa - - - -
1788576003 13.89° C 99% 0 hPa - - - -
1788574803 13.89° C 99% 0 hPa - - - -
1788573603 14.44° C 99% 0 hPa - - - -
1788573003 14.44° C 99% 0 hPa - - - -
1788572403 15° C 99% 0 hPa - - - -
1788571203 15.56° C 99% 0 hPa - - - -
1788570634 15.56° C 99% 0 hPa - - - -
1788570003 15.56° C 99% 0 hPa - - - -
1788569403 15.56° C 99% 0 hPa - - - -
1788568803 16.11° C 98% 0 hPa - - - -
1788568203 16.67° C 90% 0 hPa - - - -
1788567603 16.67° C 87% 0 hPa - - - -
1788567003 16.67° C 88% 0 hPa - - - -
1788566403 16.67° C 91% 0 hPa - - - -
1788565803 17.22° C 98% 0 hPa - - - -
1788565203 17.22° C 94% 0 hPa - - - -
1788564603 17.78° C 85% 0 hPa - - - -
1788563403 19.44° C 65% 0 hPa - - - -
1788562803 19.44° C 64% 0 hPa - - - -
1788562202 18.89° C 67% 0 hPa - - - -
1788561603 19.44° C 64% 0 hPa - - - -
1788561003 20° C 59% 0 hPa - - - -

* Rain since midnight (hover to see other rain measurements)
** Current wind speed in m/s (hover to see current wind gust speed)